sensor_id;sensor_type;location;lat;lon;timestamp;P1;durP1;ratioP1;P2;durP2;ratioP2
19434;SDS011;9853;50.848;4.108;2023-03-26T00:00:45;18.38;;;2.60;;
19434;SDS011;9853;50.848;4.108;2023-03-26T00:02:50;18.60;;;2.85;;
19434;SDS011;9853;50.848;4.108;2023-03-26T00:04:51;22.50;;;3.40;;
19434;SDS011;9853;50.848;4.108;2023-03-26T00:06:52;32.55;;;4.53;;
19434;SDS011;9853;50.848;4.108;2023-03-26T00:08:54;29.58;;;3.25;;
19434;SDS011;9853;50.848;4.108;2023-03-26T00:10:56;19.48;;;3.08;;
19434;SDS011;9853;50.848;4.108;2023-03-26T00:12:57;18.17;;;2.90;;
19434;SDS011;9853;50.848;4.108;2023-03-26T00:14:58;23.85;;;2.90;;
19434;SDS011;9853;50.848;4.108;2023-03-26T00:16:59;21.48;;;3.10;;
19434;SDS011;9853;50.848;4.108;2023-03-26T00:19:00;28.73;;;3.92;;
19434;SDS011;9853;50.848;4.108;2023-03-26T00:21:02;22.50;;;3.25;;
19434;SDS011;9853;50.848;4.108;2023-03-26T00:23:04;25.25;;;3.58;;
19434;SDS011;9853;50.848;4.108;2023-03-26T00:25:07;24.27;;;3.30;;
19434;SDS011;9853;50.848;4.108;2023-03-26T00:27:09;20.83;;;3.25;;
19434;SDS011;9853;50.848;4.108;2023-03-26T00:29:10;23.92;;;3.35;;
19434;SDS011;9853;50.848;4.108;2023-03-26T00:31:11;20.30;;;3.47;;
19434;SDS011;9853;50.848;4.108;2023-03-26T00:33:13;22.63;;;3.20;;
19434;SDS011;9853;50.848;4.108;2023-03-26T00:35:16;25.35;;;3.47;;
19434;SDS011;9853;50.848;4.108;2023-03-26T00:37:17;18.88;;;2.88;;
19434;SDS011;9853;50.848;4.108;2023-03-26T00:39:20;33.08;;;4.97;;
19434;SDS011;9853;50.848;4.108;2023-03-26T00:41:23;31.23;;;3.30;;
19434;SDS011;9853;50.848;4.108;2023-03-26T00:43:25;28.20;;;3.88;;
19434;SDS011;9853;50.848;4.108;2023-03-26T00:45:31;24.80;;;3.33;;
19434;SDS011;9853;50.848;4.108;2023-03-26T00:47:32;27.05;;;3.85;;
19434;SDS011;9853;50.848;4.108;2023-03-26T00:49:34;25.92;;;3.85;;
19434;SDS011;9853;50.848;4.108;2023-03-26T00:51:35;26.23;;;3.50;;
19434;SDS011;9853;50.848;4.108;2023-03-26T00:53:38;29.10;;;4.22;;
19434;SDS011;9853;50.848;4.108;2023-03-26T00:55:40;28.75;;;3.97;;
19434;SDS011;9853;50.848;4.108;2023-03-26T00:57:43;23.85;;;3.53;;
19434;SDS011;9853;50.848;4.108;2023-03-26T00:59:45;21.77;;;3.88;;
19434;SDS011;9853;50.848;4.108;2023-03-26T01:01:49;25.73;;;3.38;;
19434;SDS011;9853;50.848;4.108;2023-03-26T01:03:54;21.95;;;3.85;;
19434;SDS011;9853;50.848;4.108;2023-03-26T01:08:29;21.50;;;2.97;;
19434;SDS011;9853;50.848;4.108;2023-03-26T01:10:32;19.38;;;3.95;;
19434;SDS011;9853;50.848;4.108;2023-03-26T01:12:37;26.50;;;3.25;;
19434;SDS011;9853;50.848;4.108;2023-03-26T01:14:38;24.10;;;3.65;;
19434;SDS011;9853;50.848;4.108;2023-03-26T01:16:47;18.13;;;3.17;;
19434;SDS011;9853;50.848;4.108;2023-03-26T01:18:52;25.20;;;3.15;;
19434;SDS011;9853;50.848;4.108;2023-03-26T01:20:54;23.90;;;2.80;;
19434;SDS011;9853;50.848;4.108;2023-03-26T01:22:58;19.75;;;3.50;;
19434;SDS011;9853;50.848;4.108;2023-03-26T01:25:04;18.85;;;2.83;;
19434;SDS011;9853;50.848;4.108;2023-03-26T01:29:18;21.50;;;3.08;;
19434;SDS011;9853;50.848;4.108;2023-03-26T01:31:23;16.40;;;2.08;;
19434;SDS011;9853;50.848;4.108;2023-03-26T01:33:38;14.27;;;2.03;;
19434;SDS011;9853;50.848;4.108;2023-03-26T01:38:16;14.75;;;2.00;;
19434;SDS011;9853;50.848;4.108;2023-03-26T01:40:24;15.45;;;2.47;;
19434;SDS011;9853;50.848;4.108;2023-03-26T01:44:53;17.45;;;2.47;;
19434;SDS011;9853;50.848;4.108;2023-03-26T01:47:04;14.60;;;2.25;;
19434;SDS011;9853;50.848;4.108;2023-03-26T01:49:10;14.57;;;2.15;;
19434;SDS011;9853;50.848;4.108;2023-03-26T01:51:12;14.38;;;2.30;;
19434;SDS011;9853;50.848;4.108;2023-03-26T01:53:24;15.68;;;2.17;;
19434;SDS011;9853;50.848;4.108;2023-03-26T01:55:27;16.20;;;2.88;;
19434;SDS011;9853;50.848;4.108;2023-03-26T02:02:38;19.05;;;3.17;;
19434;SDS011;9853;50.848;4.108;2023-03-26T02:06:59;26.30;;;3.88;;
19434;SDS011;9853;50.848;4.108;2023-03-26T02:09:09;24.70;;;3.05;;
19434;SDS011;9853;50.848;4.108;2023-03-26T02:11:15;18.60;;;3.42;;
19434;SDS011;9853;50.848;4.108;2023-03-26T02:13:16;23.75;;;4.15;;
19434;SDS011;9853;50.848;4.108;2023-03-26T02:15:17;20.38;;;3.60;;
19434;SDS011;9853;50.848;4.108;2023-03-26T02:17:17;23.67;;;2.97;;
19434;SDS011;9853;50.848;4.108;2023-03-26T02:19:24;19.23;;;3.92;;
19434;SDS011;9853;50.848;4.108;2023-03-26T02:21:25;23.83;;;3.47;;
19434;SDS011;9853;50.848;4.108;2023-03-26T02:23:29;19.92;;;3.30;;
19434;SDS011;9853;50.848;4.108;2023-03-26T02:25:35;17.23;;;3.17;;
19434;SDS011;9853;50.848;4.108;2023-03-26T02:27:39;24.90;;;3.50;;
19434;SDS011;9853;50.848;4.108;2023-03-26T02:29:44;30.40;;;3.78;;
19434;SDS011;9853;50.848;4.108;2023-03-26T02:31:47;18.30;;;3.38;;
19434;SDS011;9853;50.848;4.108;2023-03-26T02:33:48;31.83;;;3.63;;
19434;SDS011;9853;50.848;4.108;2023-03-26T02:35:49;24.52;;;3.90;;
19434;SDS011;9853;50.848;4.108;2023-03-26T02:37:50;22.38;;;3.42;;
19434;SDS011;9853;50.848;4.108;2023-03-26T02:39:54;21.23;;;2.95;;
19434;SDS011;9853;50.848;4.108;2023-03-26T02:42:02;19.85;;;3.88;;
19434;SDS011;9853;50.848;4.108;2023-03-26T02:44:07;21.67;;;3.42;;
19434;SDS011;9853;50.848;4.108;2023-03-26T02:46:41;28.05;;;3.22;;
19434;SDS011;9853;50.848;4.108;2023-03-26T02:49:02;19.15;;;3.33;;
19434;SDS011;9853;50.848;4.108;2023-03-26T02:51:03;19.73;;;3.55;;
19434;SDS011;9853;50.848;4.108;2023-03-26T02:53:20;29.83;;;3.65;;
19434;SDS011;9853;50.848;4.108;2023-03-26T02:56:06;20.73;;;3.35;;
19434;SDS011;9853;50.848;4.108;2023-03-26T02:58:16;21.38;;;3.20;;
19434;SDS011;9853;50.848;4.108;2023-03-26T03:00:17;17.95;;;2.65;;
19434;SDS011;9853;50.848;4.108;2023-03-26T03:02:44;22.00;;;3.58;;
19434;SDS011;9853;50.848;4.108;2023-03-26T03:05:19;25.52;;;3.67;;
19434;SDS011;9853;50.848;4.108;2023-03-26T03:07:26;23.25;;;3.40;;
19434;SDS011;9853;50.848;4.108;2023-03-26T03:09:28;27.05;;;3.88;;
19434;SDS011;9853;50.848;4.108;2023-03-26T03:11:47;17.80;;;3.80;;
19434;SDS011;9853;50.848;4.108;2023-03-26T03:13:48;34.95;;;5.05;;
19434;SDS011;9853;50.848;4.108;2023-03-26T03:15:53;19.15;;;3.67;;
19434;SDS011;9853;50.848;4.108;2023-03-26T03:17:54;20.63;;;4.38;;
19434;SDS011;9853;50.848;4.108;2023-03-26T03:19:55;21.40;;;4.18;;
19434;SDS011;9853;50.848;4.108;2023-03-26T03:21:59;24.58;;;3.92;;
19434;SDS011;9853;50.848;4.108;2023-03-26T03:24:00;26.27;;;4.07;;
19434;SDS011;9853;50.848;4.108;2023-03-26T03:26:08;31.15;;;4.68;;
19434;SDS011;9853;50.848;4.108;2023-03-26T03:28:17;21.20;;;3.58;;
19434;SDS011;9853;50.848;4.108;2023-03-26T03:30:18;23.75;;;4.25;;
19434;SDS011;9853;50.848;4.108;2023-03-26T03:32:19;23.15;;;4.20;;
19434;SDS011;9853;50.848;4.108;2023-03-26T03:34:23;28.73;;;4.72;;
19434;SDS011;9853;50.848;4.108;2023-03-26T03:36:25;27.23;;;4.78;;
19434;SDS011;9853;50.848;4.108;2023-03-26T03:38:50;22.85;;;4.40;;
19434;SDS011;9853;50.848;4.108;2023-03-26T03:40:53;22.25;;;3.95;;
19434;SDS011;9853;50.848;4.108;2023-03-26T03:42:56;23.65;;;3.85;;
19434;SDS011;9853;50.848;4.108;2023-03-26T03:45:09;21.40;;;3.92;;
19434;SDS011;9853;50.848;4.108;2023-03-26T03:47:33;26.73;;;4.63;;
19434;SDS011;9853;50.848;4.108;2023-03-26T03:49:34;24.13;;;3.90;;
19434;SDS011;9853;50.848;4.108;2023-03-26T03:51:35;22.60;;;3.30;;
19434;SDS011;9853;50.848;4.108;2023-03-26T03:53:53;19.63;;;3.05;;
19434;SDS011;9853;50.848;4.108;2023-03-26T03:56:17;25.55;;;3.60;;
19434;SDS011;9853;50.848;4.108;2023-03-26T03:58:49;26.80;;;3.70;;
19434;SDS011;9853;50.848;4.108;2023-03-26T04:00:58;18.38;;;3.17;;
19434;SDS011;9853;50.848;4.108;2023-03-26T04:03:29;21.08;;;3.60;;
19434;SDS011;9853;50.848;4.108;2023-03-26T04:05:31;25.83;;;2.90;;
19434;SDS011;9853;50.848;4.108;2023-03-26T04:07:32;20.25;;;3.08;;
19434;SDS011;9853;50.848;4.108;2023-03-26T04:09:38;33.22;;;3.45;;
19434;SDS011;9853;50.848;4.108;2023-03-26T04:11:47;28.00;;;3.53;;
19434;SDS011;9853;50.848;4.108;2023-03-26T04:14:19;23.73;;;2.63;;
19434;SDS011;9853;50.848;4.108;2023-03-26T04:16:31;20.33;;;2.67;;
19434;SDS011;9853;50.848;4.108;2023-03-26T04:18:32;19.52;;;3.25;;
19434;SDS011;9853;50.848;4.108;2023-03-26T04:20:42;23.80;;;3.08;;
19434;SDS011;9853;50.848;4.108;2023-03-26T04:22:52;18.15;;;3.05;;
19434;SDS011;9853;50.848;4.108;2023-03-26T04:24:57;17.25;;;3.28;;
19434;SDS011;9853;50.848;4.108;2023-03-26T04:27:07;19.00;;;2.88;;
19434;SDS011;9853;50.848;4.108;2023-03-26T04:29:12;18.83;;;2.65;;
19434;SDS011;9853;50.848;4.108;2023-03-26T04:31:17;21.65;;;2.75;;
19434;SDS011;9853;50.848;4.108;2023-03-26T04:33:23;23.27;;;3.17;;
19434;SDS011;9853;50.848;4.108;2023-03-26T04:35:26;16.65;;;2.60;;
19434;SDS011;9853;50.848;4.108;2023-03-26T04:37:31;27.95;;;2.78;;
19434;SDS011;9853;50.848;4.108;2023-03-26T04:39:41;18.92;;;2.75;;
19434;SDS011;9853;50.848;4.108;2023-03-26T04:42:10;22.92;;;3.30;;
19434;SDS011;9853;50.848;4.108;2023-03-26T04:44:22;22.33;;;2.88;;
19434;SDS011;9853;50.848;4.108;2023-03-26T04:46:28;17.75;;;2.72;;
19434;SDS011;9853;50.848;4.108;2023-03-26T04:48:58;24.95;;;3.22;;
19434;SDS011;9853;50.848;4.108;2023-03-26T04:51:00;21.25;;;2.80;;
19434;SDS011;9853;50.848;4.108;2023-03-26T04:53:01;19.63;;;2.28;;
19434;SDS011;9853;50.848;4.108;2023-03-26T04:55:32;21.50;;;3.13;;
19434;SDS011;9853;50.848;4.108;2023-03-26T04:57:45;16.38;;;2.95;;
19434;SDS011;9853;50.848;4.108;2023-03-26T05:00:14;23.75;;;3.10;;
19434;SDS011;9853;50.848;4.108;2023-03-26T05:02:17;16.27;;;2.38;;
19434;SDS011;9853;50.848;4.108;2023-03-26T05:04:28;15.63;;;2.70;;
19434;SDS011;9853;50.848;4.108;2023-03-26T05:06:29;22.23;;;2.85;;
19434;SDS011;9853;50.848;4.108;2023-03-26T05:08:37;18.02;;;1.90;;
19434;SDS011;9853;50.848;4.108;2023-03-26T05:10:38;13.57;;;1.92;;
19434;SDS011;9853;50.848;4.108;2023-03-26T05:12:45;17.77;;;2.00;;
19434;SDS011;9853;50.848;4.108;2023-03-26T05:14:51;12.15;;;1.75;;
19434;SDS011;9853;50.848;4.108;2023-03-26T05:17:01;18.05;;;2.13;;
19434;SDS011;9853;50.848;4.108;2023-03-26T05:19:05;14.90;;;1.67;;
19434;SDS011;9853;50.848;4.108;2023-03-26T05:21:08;10.15;;;1.70;;
19434;SDS011;9853;50.848;4.108;2023-03-26T05:23:11;11.85;;;2.08;;
19434;SDS011;9853;50.848;4.108;2023-03-26T05:25:16;13.00;;;1.75;;
19434;SDS011;9853;50.848;4.108;2023-03-26T05:27:17;9.35;;;1.75;;
19434;SDS011;9853;50.848;4.108;2023-03-26T05:29:21;10.05;;;1.40;;
19434;SDS011;9853;50.848;4.108;2023-03-26T05:31:26;8.60;;;1.20;;
19434;SDS011;9853;50.848;4.108;2023-03-26T05:33:29;7.40;;;1.17;;
19434;SDS011;9853;50.848;4.108;2023-03-26T05:35:34;6.85;;;1.30;;
19434;SDS011;9853;50.848;4.108;2023-03-26T05:37:36;9.88;;;1.63;;
19434;SDS011;9853;50.848;4.108;2023-03-26T05:39:40;10.18;;;1.75;;
19434;SDS011;9853;50.848;4.108;2023-03-26T05:42:02;10.38;;;1.70;;
19434;SDS011;9853;50.848;4.108;2023-03-26T05:44:18;15.45;;;2.15;;
19434;SDS011;9853;50.848;4.108;2023-03-26T05:46:19;10.15;;;1.40;;
19434;SDS011;9853;50.848;4.108;2023-03-26T05:48:22;7.43;;;1.42;;
19434;SDS011;9853;50.848;4.108;2023-03-26T05:50:24;13.30;;;2.15;;
19434;SDS011;9853;50.848;4.108;2023-03-26T05:52:28;11.95;;;1.73;;
19434;SDS011;9853;50.848;4.108;2023-03-26T05:54:47;13.45;;;1.52;;
19434;SDS011;9853;50.848;4.108;2023-03-26T05:57:06;11.50;;;1.60;;
19434;SDS011;9853;50.848;4.108;2023-03-26T05:59:26;11.25;;;1.50;;
19434;SDS011;9853;50.848;4.108;2023-03-26T06:02:01;15.15;;;2.03;;
19434;SDS011;9853;50.848;4.108;2023-03-26T06:04:25;9.80;;;1.60;;
19434;SDS011;9853;50.848;4.108;2023-03-26T06:06:50;6.18;;;1.42;;
19434;SDS011;9853;50.848;4.108;2023-03-26T06:08:52;13.15;;;1.70;;
19434;SDS011;9853;50.848;4.108;2023-03-26T06:10:57;12.95;;;1.55;;
19434;SDS011;9853;50.848;4.108;2023-03-26T06:12:59;7.78;;;1.75;;
19434;SDS011;9853;50.848;4.108;2023-03-26T06:14:59;10.35;;;1.60;;
19434;SDS011;9853;50.848;4.108;2023-03-26T06:17:17;11.45;;;1.55;;
19434;SDS011;9853;50.848;4.108;2023-03-26T06:19:43;15.25;;;1.80;;
19434;SDS011;9853;50.848;4.108;2023-03-26T06:21:54;10.68;;;1.55;;
19434;SDS011;9853;50.848;4.108;2023-03-26T06:23:59;11.65;;;1.42;;
19434;SDS011;9853;50.848;4.108;2023-03-26T06:26:11;7.45;;;1.48;;
19434;SDS011;9853;50.848;4.108;2023-03-26T06:28:15;10.00;;;1.42;;
19434;SDS011;9853;50.848;4.108;2023-03-26T06:30:34;10.20;;;1.40;;
19434;SDS011;9853;50.848;4.108;2023-03-26T06:32:42;5.65;;;1.02;;
19434;SDS011;9853;50.848;4.108;2023-03-26T06:34:46;5.28;;;1.00;;
19434;SDS011;9853;50.848;4.108;2023-03-26T06:36:47;2.10;;;0.63;;
19434;SDS011;9853;50.848;4.108;2023-03-26T06:38:51;4.80;;;0.75;;
19434;SDS011;9853;50.848;4.108;2023-03-26T06:40:52;4.00;;;0.85;;
19434;SDS011;9853;50.848;4.108;2023-03-26T06:42:59;2.53;;;0.88;;
19434;SDS011;9853;50.848;4.108;2023-03-26T06:45:23;6.27;;;0.90;;
19434;SDS011;9853;50.848;4.108;2023-03-26T06:47:43;2.67;;;0.50;;
19434;SDS011;9853;50.848;4.108;2023-03-26T06:50:12;3.70;;;0.60;;
19434;SDS011;9853;50.848;4.108;2023-03-26T06:52:39;3.60;;;0.50;;
19434;SDS011;9853;50.848;4.108;2023-03-26T06:55:00;2.95;;;0.52;;
19434;SDS011;9853;50.848;4.108;2023-03-26T06:57:27;3.17;;;1.20;;
19434;SDS011;9853;50.848;4.108;2023-03-26T06:59:53;4.27;;;0.90;;
19434;SDS011;9853;50.848;4.108;2023-03-26T07:02:12;5.40;;;0.83;;
19434;SDS011;9853;50.848;4.108;2023-03-26T07:04:32;4.40;;;0.80;;
19434;SDS011;9853;50.848;4.108;2023-03-26T07:06:52;4.00;;;0.50;;
19434;SDS011;9853;50.848;4.108;2023-03-26T07:09:28;2.57;;;0.53;;
19434;SDS011;9853;50.848;4.108;2023-03-26T07:11:50;8.80;;;0.90;;
19434;SDS011;9853;50.848;4.108;2023-03-26T07:14:11;7.40;;;0.93;;
19434;SDS011;9853;50.848;4.108;2023-03-26T07:16:18;4.13;;;0.90;;
19434;SDS011;9853;50.848;4.108;2023-03-26T07:18:54;3.53;;;0.80;;
19434;SDS011;9853;50.848;4.108;2023-03-26T07:20:58;3.63;;;0.77;;
19434;SDS011;9853;50.848;4.108;2023-03-26T07:23:03;5.37;;;1.03;;
19434;SDS011;9853;50.848;4.108;2023-03-26T07:25:14;3.20;;;1.40;;
19434;SDS011;9853;50.848;4.108;2023-03-26T07:35:19;5.43;;;0.90;;
19434;SDS011;9853;50.848;4.108;2023-03-26T07:46:18;6.60;;;1.10;;
19434;SDS011;9853;50.848;4.108;2023-03-26T07:48:59;6.47;;;0.83;;
19434;SDS011;9853;50.848;4.108;2023-03-26T07:51:25;1.17;;;0.47;;
19434;SDS011;9853;50.848;4.108;2023-03-26T07:53:45;2.13;;;0.80;;
19434;SDS011;9853;50.848;4.108;2023-03-26T07:56:16;4.37;;;0.80;;
19434;SDS011;9853;50.848;4.108;2023-03-26T08:03:30;3.90;;;0.97;;
19434;SDS011;9853;50.848;4.108;2023-03-26T08:06:06;6.57;;;0.80;;
19434;SDS011;9853;50.848;4.108;2023-03-26T08:08:47;5.10;;;1.10;;
19434;SDS011;9853;50.848;4.108;2023-03-26T08:11:25;7.20;;;0.97;;
19434;SDS011;9853;50.848;4.108;2023-03-26T08:13:46;5.90;;;1.30;;
19434;SDS011;9853;50.848;4.108;2023-03-26T08:16:10;5.93;;;0.90;;
19434;SDS011;9853;50.848;4.108;2023-03-26T08:20:48;9.50;;;1.33;;
19434;SDS011;9853;50.848;4.108;2023-03-26T08:22:54;7.27;;;1.43;;
19434;SDS011;9853;50.848;4.108;2023-03-26T08:25:21;6.63;;;1.57;;
19434;SDS011;9853;50.848;4.108;2023-03-26T08:27:42;5.43;;;1.10;;
19434;SDS011;9853;50.848;4.108;2023-03-26T08:30:12;3.23;;;1.13;;
19434;SDS011;9853;50.848;4.108;2023-03-26T08:32:25;3.67;;;1.10;;
19434;SDS011;9853;50.848;4.108;2023-03-26T08:34:26;8.90;;;1.40;;
19434;SDS011;9853;50.848;4.108;2023-03-26T08:36:27;40.73;;;1.87;;
19434;SDS011;9853;50.848;4.108;2023-03-26T08:38:28;11.33;;;1.60;;
19434;SDS011;9853;50.848;4.108;2023-03-26T08:45:27;3.67;;;0.90;;
19434;SDS011;9853;50.848;4.108;2023-03-26T08:50:46;8.80;;;1.43;;
19434;SDS011;9853;50.848;4.108;2023-03-26T09:12:09;4.87;;;1.30;;
19434;SDS011;9853;50.848;4.108;2023-03-26T09:16:42;7.53;;;1.50;;
19434;SDS011;9853;50.848;4.108;2023-03-26T09:26:59;9.13;;;1.70;;
19434;SDS011;9853;50.848;4.108;2023-03-26T09:39:06;10.37;;;2.00;;
19434;SDS011;9853;50.848;4.108;2023-03-26T09:43:41;6.03;;;1.40;;
19434;SDS011;9853;50.848;4.108;2023-03-26T09:46:27;6.60;;;1.50;;
19434;SDS011;9853;50.848;4.108;2023-03-26T09:48:46;7.97;;;1.60;;
19434;SDS011;9853;50.848;4.108;2023-03-26T10:02:49;11.70;;;1.83;;
19434;SDS011;9853;50.848;4.108;2023-03-26T10:05:00;8.13;;;1.80;;
19434;SDS011;9853;50.848;4.108;2023-03-26T10:09:46;10.13;;;2.00;;
19434;SDS011;9853;50.848;4.108;2023-03-26T10:12:05;7.43;;;2.20;;
19434;SDS011;9853;50.848;4.108;2023-03-26T10:15:02;8.77;;;1.90;;
19434;SDS011;9853;50.848;4.108;2023-03-26T10:24:06;7.13;;;1.60;;
19434;SDS011;9853;50.848;4.108;2023-03-26T10:28:45;6.67;;;2.00;;
19434;SDS011;9853;50.848;4.108;2023-03-26T10:33:32;10.90;;;2.13;;
19434;SDS011;9853;50.848;4.108;2023-03-26T10:43:16;8.23;;;1.87;;
19434;SDS011;9853;50.848;4.108;2023-03-26T10:52:36;5.37;;;1.63;;
19434;SDS011;9853;50.848;4.108;2023-03-26T10:57:14;8.47;;;1.40;;
19434;SDS011;9853;50.848;4.108;2023-03-26T10:59:33;6.13;;;1.60;;
19434;SDS011;9853;50.848;4.108;2023-03-26T11:09:01;6.07;;;1.63;;
19434;SDS011;9853;50.848;4.108;2023-03-26T11:15:47;7.27;;;1.30;;
19434;SDS011;9853;50.848;4.108;2023-03-26T11:30:14;3.13;;;1.20;;
19434;SDS011;9853;50.848;4.108;2023-03-26T11:32:32;4.70;;;1.53;;
19434;SDS011;9853;50.848;4.108;2023-03-26T11:34:48;4.40;;;1.30;;
19434;SDS011;9853;50.848;4.108;2023-03-26T11:37:00;6.73;;;2.00;;
19434;SDS011;9853;50.848;4.108;2023-03-26T11:39:08;6.03;;;1.67;;
19434;SDS011;9853;50.848;4.108;2023-03-26T11:41:17;7.93;;;2.10;;
19434;SDS011;9853;50.848;4.108;2023-03-26T11:43:28;6.37;;;1.70;;
19434;SDS011;9853;50.848;4.108;2023-03-26T11:45:34;6.80;;;1.50;;
19434;SDS011;9853;50.848;4.108;2023-03-26T11:47:41;6.60;;;1.83;;
19434;SDS011;9853;50.848;4.108;2023-03-26T11:49:48;7.27;;;2.27;;
19434;SDS011;9853;50.848;4.108;2023-03-26T11:51:52;10.43;;;2.23;;
19434;SDS011;9853;50.848;4.108;2023-03-26T11:53:53;5.37;;;2.03;;
19434;SDS011;9853;50.848;4.108;2023-03-26T11:58:24;8.30;;;2.87;;
19434;SDS011;9853;50.848;4.108;2023-03-26T12:00:37;12.17;;;4.40;;
19434;SDS011;9853;50.848;4.108;2023-03-26T12:02:39;4.20;;;2.30;;
19434;SDS011;9853;50.848;4.108;2023-03-26T12:04:41;3.70;;;1.93;;
19434;SDS011;9853;50.848;4.108;2023-03-26T12:08:52;4.97;;;2.20;;
19434;SDS011;9853;50.848;4.108;2023-03-26T12:11:01;4.03;;;1.60;;
19434;SDS011;9853;50.848;4.108;2023-03-26T12:13:28;5.37;;;1.80;;
19434;SDS011;9853;50.848;4.108;2023-03-26T12:15:50;4.73;;;1.50;;
19434;SDS011;9853;50.848;4.108;2023-03-26T12:17:57;3.40;;;1.70;;
19434;SDS011;9853;50.848;4.108;2023-03-26T12:19:59;3.83;;;1.57;;
19434;SDS011;9853;50.848;4.108;2023-03-26T12:22:00;5.43;;;1.60;;
19434;SDS011;9853;50.848;4.108;2023-03-26T12:24:01;2.83;;;1.40;;
19434;SDS011;9853;50.848;4.108;2023-03-26T12:26:16;6.13;;;1.53;;
19434;SDS011;9853;50.848;4.108;2023-03-26T12:28:19;4.07;;;1.80;;
19434;SDS011;9853;50.848;4.108;2023-03-26T12:30:36;5.37;;;1.70;;
19434;SDS011;9853;50.848;4.108;2023-03-26T12:32:39;2.93;;;1.33;;
19434;SDS011;9853;50.848;4.108;2023-03-26T12:34:41;2.87;;;1.23;;
19434;SDS011;9853;50.848;4.108;2023-03-26T12:37:30;2.53;;;1.00;;
19434;SDS011;9853;50.848;4.108;2023-03-26T12:41:39;3.23;;;0.90;;
19434;SDS011;9853;50.848;4.108;2023-03-26T12:43:41;5.47;;;1.00;;
19434;SDS011;9853;50.848;4.108;2023-03-26T12:45:42;1.77;;;1.00;;
19434;SDS011;9853;50.848;4.108;2023-03-26T12:47:43;2.13;;;0.63;;
19434;SDS011;9853;50.848;4.108;2023-03-26T12:49:44;2.37;;;0.87;;
19434;SDS011;9853;50.848;4.108;2023-03-26T12:51:50;2.80;;;1.03;;
19434;SDS011;9853;50.848;4.108;2023-03-26T12:56:30;2.53;;;0.70;;
19434;SDS011;9853;50.848;4.108;2023-03-26T13:08:48;3.17;;;1.20;;
19434;SDS011;9853;50.848;4.108;2023-03-26T13:15:50;5.13;;;1.20;;
19434;SDS011;9853;50.848;4.108;2023-03-26T13:20:23;3.33;;;1.63;;
19434;SDS011;9853;50.848;4.108;2023-03-26T13:34:03;7.43;;;3.30;;
19434;SDS011;9853;50.848;4.108;2023-03-26T13:36:25;6.80;;;3.40;;
19434;SDS011;9853;50.848;4.108;2023-03-26T13:38:37;8.17;;;2.90;;
19434;SDS011;9853;50.848;4.108;2023-03-26T13:47:30;4.83;;;3.00;;
19434;SDS011;9853;50.848;4.108;2023-03-26T13:52:08;5.63;;;3.70;;
19434;SDS011;9853;50.848;4.108;2023-03-26T13:56:24;8.27;;;3.00;;
19434;SDS011;9853;50.848;4.108;2023-03-26T13:58:37;7.17;;;3.70;;
19434;SDS011;9853;50.848;4.108;2023-03-26T14:00:53;5.67;;;3.80;;
19434;SDS011;9853;50.848;4.108;2023-03-26T14:03:07;5.63;;;3.97;;
19434;SDS011;9853;50.848;4.108;2023-03-26T14:05:38;7.63;;;3.70;;
19434;SDS011;9853;50.848;4.108;2023-03-26T14:08:00;8.47;;;4.03;;
19434;SDS011;9853;50.848;4.108;2023-03-26T14:10:21;5.63;;;4.07;;
19434;SDS011;9853;50.848;4.108;2023-03-26T14:14:59;4.47;;;2.13;;
19434;SDS011;9853;50.848;4.108;2023-03-26T14:31:13;7.40;;;1.20;;
19434;SDS011;9853;50.848;4.108;2023-03-26T14:35:41;3.05;;;1.30;;
19434;SDS011;9853;50.848;4.108;2023-03-26T14:42:30;2.73;;;1.20;;
19434;SDS011;9853;50.848;4.108;2023-03-26T16:25:20;25.40;;;8.77;;
19434;SDS011;9853;50.848;4.108;2023-03-26T16:33:34;17.70;;;6.77;;
19434;SDS011;9853;50.848;4.108;2023-03-26T17:00:53;16.50;;;3.70;;
